Time;durP1;ratioP1;P1;durP2;ratioP2;P2;SDS_P1;SDS_P2;PMS_P1;PMS_P2;Temp;Humidity;BMP_temperature;BMP_pressure;BME280_temperature;BME280_humidity;BME280_pressure;Samples;Min_cycle;Max_cycle;Signal;HPM_P1;HPM_P2
2023/12/01 00:01:06;;;;;;;9.30;5.80;;;;;;;-0.23;81.06;97654.19;105397;1260;61148;-28
2023/12/01 00:03:34;;;;;;;11.80;6.90;;;;;;;0.07;79.36;97653.21;105246;1260;61066;-28
2023/12/01 00:06:03;;;;;;;13.40;6.60;;;;;;;-0.01;78.98;97651.84;105248;1260;72213;-28
2023/12/01 00:08:31;;;;;;;14.10;7.00;;;;;;;-0.16;79.34;97660.56;105260;1265;74498;-28
2023/12/01 00:10:58;;;;;;;12.90;6.90;;;;;;;-0.36;79.67;97666.02;105607;1256;70205;-28
2023/12/01 00:13:26;;;;;;;10.10;5.40;;;;;;;-0.57;80.19;97663.11;103116;1254;3662006;-28
2023/12/01 00:15:55;;;;;;;12.60;6.40;;;;;;;-0.80;80.45;97656.59;105764;1254;61135;-28
2023/12/01 00:18:23;;;;;;;11.60;6.00;;;;;;;-0.79;81.81;97651.94;105955;1256;72155;-28
2023/12/01 00:20:51;;;;;;;10.20;5.50;;;;;;;-0.10;80.67;97651.48;105634;1259;74439;-28
2023/12/01 00:23:20;;;;;;;10.50;5.60;;;;;;;0.23;78.84;97657.38;105687;1254;73473;-28
2023/12/01 00:33:27;;;;;;;9.50;5.50;;;;;;;-0.46;80.16;97651.23;103424;1283;600132;-28
2023/12/01 00:35:55;;;;;;;11.80;5.30;;;;;;;-0.69;80.80;97659.34;105535;1260;61167;-28
2023/12/01 00:38:23;;;;;;;6.70;4.70;;;;;;;-0.86;81.58;97657.24;105541;1258;61122;-29
2023/12/01 00:40:51;;;;;;;9.70;4.60;;;;;;;-0.39;81.48;97656.77;105732;1257;72179;-28
2023/12/01 00:43:19;;;;;;;13.00;7.20;;;;;;;0.18;79.64;97643.85;105559;1257;73087;-29
2023/12/01 00:45:47;;;;;;;10.80;6.10;;;;;;;0.26;78.82;97642.48;105575;1261;70803;-29
2023/12/01 00:48:15;;;;;;;9.40;5.00;;;;;;;0.12;78.82;97639.27;103070;1257;3578665;-29
2023/12/01 00:50:43;;;;;;;14.60;6.50;;;;;;;-0.09;79.03;97636.95;105936;1258;61159;-29
2023/12/01 01:00:49;;;;;;;12.00;5.70;;;;;;;-0.82;81.66;97627.05;102558;1292;599903;-30
2023/12/01 01:03:17;;;;;;;9.50;5.50;;;;;;;-0.46;82.24;97621.39;105610;1256;61045;-30
2023/12/01 01:05:45;;;;;;;9.10;5.40;;;;;;;0.30;80.50;97624.36;105683;1259;61228;-28
2023/12/01 01:08:13;;;;;;;12.80;6.90;;;;;;;0.52;78.79;97628.95;105615;1260;70968;-30
2023/12/01 01:10:41;;;;;;;12.60;6.80;;;;;;;0.42;78.55;97618.46;105647;1257;73401;-30
2023/12/01 01:13:09;;;;;;;11.70;7.00;;;;;;;0.20;78.77;97616.06;105584;1257;71823;-30
2023/12/01 01:15:37;;;;;;;16.10;9.10;;;;;;;-0.05;78.96;97616.21;103288;1256;3505591;-29
2023/12/01 01:25:44;;;;;;;9.80;6.50;;;;;;;-0.83;82.30;97585.55;102613;1292;599964;-30
2023/12/01 01:28:12;;;;;;;13.30;8.50;;;;;;;-0.19;82.09;97588.58;105368;1262;61173;-31
2023/12/01 01:30:40;;;;;;;13.80;7.90;;;;;;;0.42;79.85;97586.72;105527;1258;61164;-31
2023/12/01 01:33:08;;;;;;;19.60;10.50;;;;;;;0.51;78.71;97581.55;105560;1260;72190;-31
2023/12/01 01:35:36;;;;;;;16.90;9.40;;;;;;;0.36;78.63;97584.70;105542;1260;74291;-31
2023/12/01 01:38:03;;;;;;;14.90;8.60;;;;;;;0.16;78.75;97584.77;105554;1262;72621;-31
2023/12/01 01:40:31;;;;;;;14.80;8.40;;;;;;;-0.07;79.08;97582.92;103026;1257;3505233;-31
2023/12/01 01:43:01;;;;;;;26.10;13.50;;;;;;;-0.32;79.65;97579.80;105638;1255;61118;-31
2023/12/01 01:45:28;;;;;;;39.20;16.00;;;;;;;-0.49;80.10;97585.11;105530;1260;72161;-31
2023/12/01 01:47:57;;;;;;;39.20;17.20;;;;;;;-0.66;80.60;97589.02;105461;1260;73178;-31
2023/12/01 01:50:25;;;;;;;40.60;16.50;;;;;;;-0.83;81.05;97589.61;105513;1262;70468;-31
2023/12/01 01:52:54;;;;;;;25.10;11.50;;;;;;;-0.32;81.40;97589.85;105582;1262;61193;-31
2023/12/01 01:55:22;;;;;;;21.90;10.40;;;;;;;0.38;79.44;97580.31;105576;1257;61051;-31
2023/12/01 01:57:49;;;;;;;31.70;13.90;;;;;;;0.50;78.58;97567.42;105362;1260;73046;-31
2023/12/01 02:00:18;;;;;;;36.90;16.10;;;;;;;0.31;78.29;97554.09;105170;1262;73103;-32
2023/12/01 02:02:47;;;;;;;37.50;17.20;;;;;;;0.05;78.84;97547.02;105527;1262;72617;-32
2023/12/01 02:12:55;;;;;;;12.40;7.50;;;;;;;-0.78;81.49;97538.34;102633;1293;600166;-29
2023/12/01 02:15:32;;;;;;;10.60;6.40;;;;;;;-0.48;81.95;97543.38;105582;1262;61749;-31
2023/12/01 02:18:00;;;;;;;9.30;5.60;;;;;;;0.20;80.05;97542.84;105289;1261;61063;-32
2023/12/01 02:20:28;;;;;;;9.50;5.30;;;;;;;0.34;79.06;97547.42;105509;1261;71000;-31
2023/12/01 02:22:56;;;;;;;10.80;6.20;;;;;;;0.19;78.79;97543.78;105267;1260;73027;-31
2023/12/01 02:25:24;;;;;;;10.00;5.80;;;;;;;-0.05;79.37;97540.34;102512;1260;3589372;-33
2023/12/01 02:27:52;;;;;;;9.40;5.60;;;;;;;-0.24;79.55;97537.84;105310;1264;61615;-31
2023/12/01 02:38:03;;;;;;;9.30;5.00;;;;;;;-0.86;81.51;97541.89;103510;1283;600026;-30
2023/12/01 02:40:30;;;;;;;8.30;5.40;;;;;;;-0.26;81.81;97520.27;104851;1270;61225;-31
2023/12/01 02:42:58;;;;;;;12.40;5.70;;;;;;;0.44;80.03;97525.09;104893;1269;61110;-31
2023/12/01 02:45:28;;;;;;;7.90;4.30;;;;;;;0.58;78.64;97524.22;105741;1254;71031;-30
2023/12/01 02:47:56;;;;;;;12.30;6.30;;;;;;;0.43;78.60;97517.69;105725;1254;74305;-31
2023/12/01 02:58:03;;;;;;;15.10;6.10;;;;;;;-0.38;80.40;97491.85;102592;1296;600026;-31
2023/12/01 03:00:31;;;;;;;11.00;6.60;;;;;;;-0.56;80.71;97509.81;105855;1257;61230;-32
2023/12/01 03:03:01;;;;;;;10.00;5.10;;;;;;;-0.68;81.49;97507.80;105632;1254;61053;-32
2023/12/01 03:05:29;;;;;;;10.80;5.80;;;;;;;-0.22;81.26;97503.80;105657;1254;72215;-32
2023/12/01 03:07:57;;;;;;;9.70;5.60;;;;;;;0.46;79.65;97489.85;105705;1254;74353;-32
2023/12/01 03:10:25;;;;;;;11.20;6.10;;;;;;;0.62;78.76;97494.11;105620;1254;71801;-32
2023/12/01 03:12:53;;;;;;;10.20;5.60;;;;;;;0.49;78.38;97482.77;103381;1251;61766;-32
2023/12/01 03:15:21;;;;;;;7.90;5.20;;;;;;;0.28;78.68;97488.45;105915;1251;61039;-34
2023/12/01 03:25:33;;;;;;;9.00;5.90;;;;;;;-0.49;80.34;97475.10;102680;1292;600238;-32
2023/12/01 03:28:01;;;;;;;10.70;5.70;;;;;;;-0.66;81.01;97467.95;105380;1262;61190;-33
2023/12/01 03:30:29;;;;;;;8.50;5.10;;;;;;;-0.16;81.10;97476.84;105269;1265;61201;-33
2023/12/01 03:40:56;;;;;;;8.30;4.70;;;;;;;0.36;79.09;97493.16;103256;1285;615261;-29
2023/12/01 03:43:23;;;;;;;8.90;5.50;;;;;;;0.12;79.26;97493.86;105398;1261;61081;-31
2023/12/01 03:45:50;;;;;;;12.30;6.40;;;;;;;-0.08;79.83;97526.66;105418;1263;61686;-32
2023/12/01 03:48:17;;;;;;;11.50;7.10;;;;;;;-0.28;80.20;97519.02;105455;1257;72105;-32
2023/12/01 03:50:44;;;;;;;9.00;6.30;;;;;;;-0.41;80.45;97487.77;105342;1264;73213;-31
2023/12/01 03:53:11;;;;;;;9.70;5.80;;;;;;;-0.52;80.57;97496.59;102689;1260;3521357;-31
2023/12/01 03:55:39;;;;;;;7.60;4.90;;;;;;;-0.06;80.75;97500.25;105234;1255;61173;-31
2023/12/01 03:58:06;;;;;;;12.10;7.30;;;;;;;0.64;79.48;97492.60;105646;1261;61125;-31
2023/12/01 04:00:34;;;;;;;12.20;7.20;;;;;;;0.80;78.27;97501.99;105697;1259;72223;-31
2023/12/01 04:03:01;;;;;;;11.40;6.90;;;;;;;0.65;78.16;97518.61;105542;1263;73978;-32
2023/12/01 04:05:28;;;;;;;11.40;6.20;;;;;;;0.45;78.37;97519.60;105534;1258;72622;-32
2023/12/01 04:07:55;;;;;;;10.20;5.70;;;;;;;0.25;78.64;97510.13;105279;1263;61273;-32
2023/12/01 04:10:25;;;;;;;9.30;6.20;;;;;;;0.06;79.18;97501.55;105592;1258;61160;-32
2023/12/01 04:12:54;;;;;;;11.30;6.60;;;;;;;-0.10;79.41;97510.73;105410;1263;71688;-32
2023/12/01 04:15:24;;;;;;;11.00;7.30;;;;;;;-0.25;79.67;97502.45;105564;1257;74483;-31
2023/12/01 04:17:52;;;;;;;10.10;5.60;;;;;;;-0.36;80.31;97490.02;105369;1256;72625;-31
2023/12/01 04:20:25;;;;;;;12.00;6.90;;;;;;;0.07;80.19;97505.07;105311;1260;61847;-31
2023/12/01 04:22:52;;;;;;;14.20;7.60;;;;;;;0.76;78.93;97517.91;105272;1260;61188;-32
2023/12/01 04:25:20;;;;;;;13.20;7.40;;;;;;;0.93;78.00;97515.08;105524;1260;72928;-32
2023/12/01 04:27:47;;;;;;;17.10;8.30;;;;;;;0.82;77.60;97506.42;105466;1260;74380;-33
2023/12/01 04:30:15;;;;;;;10.90;5.80;;;;;;;0.67;77.79;97498.53;105606;1257;72707;-33
2023/12/01 04:32:44;;;;;;;10.80;6.60;;;;;;;0.52;77.93;97496.23;105542;1263;61143;-34
2023/12/01 04:35:15;;;;;;;13.40;6.30;;;;;;;0.34;77.86;97485.66;105363;1264;61147;-34
2023/12/01 04:37:42;;;;;;;12.50;7.00;;;;;;;0.14;78.34;97495.27;105587;1262;72974;-34
2023/12/01 04:40:16;;;;;;;12.00;6.30;;;;;;;-0.03;78.69;97494.98;105476;1272;72965;-34
2023/12/01 04:42:44;;;;;;;9.00;5.40;;;;;;;-0.19;78.82;97503.32;105320;1263;72669;-35
2023/12/01 04:45:12;;;;;;;9.40;5.80;;;;;;;0.20;79.24;97505.48;105223;1259;61108;-35
2023/12/01 04:47:43;;;;;;;14.10;7.90;;;;;;;0.76;78.09;97509.56;105335;1265;61160;-33
2023/12/01 04:50:12;;;;;;;13.40;8.30;;;;;;;0.92;77.60;97499.45;105307;1267;72925;-32
2023/12/01 04:52:39;;;;;;;12.70;7.40;;;;;;;0.81;77.48;97505.81;105199;1257;74151;-33
2023/12/01 04:55:08;;;;;;;8.90;5.70;;;;;;;0.60;77.54;97524.63;105513;1263;73001;-32
2023/12/01 04:57:35;;;;;;;9.40;6.10;;;;;;;0.35;78.15;97511.55;105178;1263;61160;-32
2023/12/01 05:00:18;;;;;;;10.30;6.20;;;;;;;0.19;78.40;97482.98;105256;1257;61135;-32
2023/12/01 05:02:50;;;;;;;8.50;6.30;;;;;;;-0.00;78.79;97474.69;105229;1266;73082;-32
2023/12/01 05:05:30;;;;;;;12.80;7.50;;;;;;;-0.16;79.33;97476.17;105413;1272;74461;-32
2023/12/01 05:07:58;;;;;;;9.60;6.00;;;;;;;-0.29;80.15;97487.67;105406;1262;72750;-32
2023/12/01 05:10:30;;;;;;;11.60;6.90;;;;;;;0.26;80.40;97486.11;105364;1263;61144;-32
2023/12/01 05:12:59;;;;;;;12.20;7.00;;;;;;;1.01;78.46;97476.62;105294;1257;61390;-33
2023/12/01 05:15:30;;;;;;;13.30;7.30;;;;;;;1.19;76.96;97483.50;105329;1263;72875;-33
2023/12/01 05:17:58;;;;;;;13.50;7.10;;;;;;;1.05;76.81;97492.09;105225;1265;74337;-32
2023/12/01 05:20:27;;;;;;;10.60;5.50;;;;;;;0.82;76.82;97493.98;105227;1264;72673;-31
2023/12/01 05:22:55;;;;;;;9.50;5.50;;;;;;;0.58;77.34;97484.11;105355;1258;61094;-31
2023/12/01 05:25:25;;;;;;;12.30;6.60;;;;;;;0.26;77.91;97475.92;105120;1257;61074;-31
2023/12/01 05:27:56;;;;;;;11.10;6.20;;;;;;;-0.04;78.83;97476.06;105261;1260;74191;-32
2023/12/01 05:30:25;;;;;;;9.80;6.00;;;;;;;-0.29;79.46;97479.84;105214;1264;74883;-32
2023/12/01 05:32:53;;;;;;;10.00;6.10;;;;;;;-0.48;79.80;97483.42;105138;1258;72147;-32
2023/12/01 05:35:20;;;;;;;10.30;6.00;;;;;;;-0.15;81.00;97490.39;105281;1262;61056;-32
2023/12/01 05:37:49;;;;;;;10.90;6.80;;;;;;;0.54;79.73;97490.98;105478;1263;61150;-32
2023/12/01 05:40:25;;;;;;;13.60;7.70;;;;;;;0.78;78.78;97489.79;105357;1263;72782;-32
2023/12/01 05:42:54;;;;;;;12.80;7.20;;;;;;;0.69;78.17;97495.01;105438;1257;74239;-32
2023/12/01 05:45:22;;;;;;;12.10;5.90;;;;;;;0.48;78.21;97489.34;105308;1264;71116;-31
2023/12/01 05:47:52;;;;;;;10.70;6.00;;;;;;;0.31;78.35;97484.80;105284;1258;61186;-31
2023/12/01 05:50:24;;;;;;;12.30;6.80;;;;;;;0.15;78.78;97482.59;105270;1263;61134;-31
2023/12/01 05:52:53;;;;;;;13.50;7.10;;;;;;;-0.07;79.29;97495.91;105204;1267;73129;-31
2023/12/01 05:55:21;;;;;;;12.10;6.60;;;;;;;-0.34;80.18;97491.93;105220;1266;73246;-31
2023/12/01 05:57:54;;;;;;;12.20;6.10;;;;;;;-0.52;80.65;97480.93;105259;1265;74714;-31
2023/12/01 06:00:23;;;;;;;12.10;6.60;;;;;;;-0.02;81.09;97470.30;105412;1258;61058;-31
2023/12/01 06:02:51;;;;;;;11.70;7.60;;;;;;;0.66;79.00;97484.77;105286;1264;61144;-31
2023/12/01 06:05:19;;;;;;;16.80;8.60;;;;;;;0.83;78.00;97502.48;105279;1266;73090;-31
2023/12/01 06:07:54;;;;;;;13.30;7.40;;;;;;;0.74;77.69;97478.28;105307;1264;74427;-31
2023/12/01 06:10:22;;;;;;;10.40;5.00;;;;;;;0.51;77.34;97469.02;105468;1263;72552;-31
2023/12/01 06:12:49;;;;;;;10.00;5.90;;;;;;;0.24;77.71;97469.54;105251;1263;61156;-31
2023/12/01 06:15:17;;;;;;;12.80;6.80;;;;;;;0.07;78.38;97471.30;105619;1263;61163;-31
2023/12/01 06:17:46;;;;;;;12.40;6.20;;;;;;;-0.11;78.69;97471.41;105339;1263;73039;-31
2023/12/01 06:20:20;;;;;;;11.40;6.10;;;;;;;-0.29;78.53;97474.41;105237;1264;73303;-31
2023/12/01 06:22:54;;;;;;;12.70;5.70;;;;;;;-0.47;78.90;97481.48;105282;1262;72427;-31
2023/12/01 06:25:26;;;;;;;14.30;7.90;;;;;;;0.01;79.47;97485.35;105196;1264;61176;-30
2023/12/01 06:27:57;;;;;;;12.00;7.00;;;;;;;0.76;78.03;97496.78;105465;1257;61089;-30
2023/12/01 06:30:26;;;;;;;15.40;8.20;;;;;;;1.01;77.12;97488.45;105282;1258;73063;-31
2023/12/01 06:32:53;;;;;;;12.50;7.20;;;;;;;1.02;76.81;97491.27;105654;1255;74270;-30
2023/12/01 06:35:20;;;;;;;10.50;5.80;;;;;;;1.01;76.54;97495.13;105749;1256;71496;-30
2023/12/01 06:37:47;;;;;;;11.60;6.70;;;;;;;0.95;76.31;97483.05;105555;1254;61192;-31
2023/12/01 06:40:17;;;;;;;14.00;7.90;;;;;;;0.84;76.17;97476.91;105574;1256;61175;-31
2023/12/01 06:42:46;;;;;;;12.90;7.30;;;;;;;0.58;76.48;97482.20;105593;1262;71645;-31
2023/12/01 06:45:14;;;;;;;16.70;8.00;;;;;;;0.35;76.87;97490.89;105700;1260;73020;-31
2023/12/01 06:47:43;;;;;;;21.60;11.60;;;;;;;0.07;77.21;97474.69;105639;1254;72519;-31
2023/12/01 06:50:10;;;;;;;16.80;8.10;;;;;;;-0.04;77.69;97468.23;105460;1254;61145;-31
2023/12/01 06:52:38;;;;;;;13.90;7.50;;;;;;;0.48;77.74;97479.81;105543;1257;61089;-30
2023/12/01 06:55:07;;;;;;;12.00;6.30;;;;;;;1.01;76.81;97480.08;105625;1256;72748;-31
2023/12/01 06:57:40;;;;;;;9.60;5.90;;;;;;;1.05;76.26;97468.82;105763;1254;74197;-30
2023/12/01 07:00:09;;;;;;;11.60;7.20;;;;;;;0.87;76.06;97471.75;105468;1254;71108;-31
2023/12/01 07:02:39;;;;;;;10.90;6.00;;;;;;;0.62;76.23;97456.16;105682;1259;61103;-30
2023/12/01 07:06:22;;;;;;;13.10;7.20;;;;;;;0.34;76.79;97456.95;102721;1294;600107;-31
2023/12/01 07:08:50;;;;;;;13.20;6.90;;;;;;;0.19;76.83;97463.35;104918;1267;61116;-31
2023/12/01 07:18:57;;;;;;;17.50;9.00;;;;;;;0.51;78.36;97499.58;102695;1295;600069;-28
2023/12/01 07:21:25;;;;;;;17.00;8.90;;;;;;;0.52;78.02;97501.02;104841;1272;61183;-28
2023/12/01 07:23:53;;;;;;;14.70;8.20;;;;;;;0.47;78.31;97501.52;105575;1263;61142;-28
2023/12/01 07:26:27;;;;;;;15.80;9.00;;;;;;;0.34;78.60;97494.48;105521;1257;71683;-29
2023/12/01 07:28:54;;;;;;;14.30;8.50;;;;;;;0.24;78.99;97486.98;105274;1266;73102;-28
2023/12/01 07:31:24;;;;;;;12.50;7.10;;;;;;;0.14;79.36;97484.17;104313;1254;3583385;-27
2023/12/01 07:33:52;;;;;;;20.60;11.50;;;;;;;0.05;79.69;97476.91;105631;1257;61106;-29
2023/12/01 07:36:20;;;;;;;14.90;7.80;;;;;;;0.10;80.11;97474.20;105517;1254;61743;-27
2023/12/01 07:39:04;;;;;;;15.00;8.60;;;;;;;0.73;78.93;97481.72;105880;1254;61205;-28
2023/12/01 07:41:33;;;;;;;17.50;9.80;;;;;;;1.55;77.47;97494.66;105910;1259;72234;-27
2023/12/01 07:44:02;;;;;;;17.50;9.60;;;;;;;1.82;75.40;97499.52;105671;1260;74314;-30
2023/12/01 07:46:32;;;;;;;13.90;8.10;;;;;;;1.68;74.58;97500.98;105708;1257;71434;-30
2023/12/01 07:49:00;;;;;;;15.90;9.60;;;;;;;1.54;74.70;97486.71;105809;1260;61162;-30
2023/12/01 07:59:15;;;;;;;22.60;11.30;;;;;;;1.35;75.85;97479.28;102621;1295;600449;-25
2023/12/01 08:01:43;;;;;;;14.90;9.00;;;;;;;1.20;75.67;97491.58;105074;1266;61149;-25
2023/12/01 08:04:11;;;;;;;19.70;10.50;;;;;;;1.01;76.38;97520.59;104995;1267;61168;-26
2023/12/01 08:06:39;;;;;;;13.30;7.90;;;;;;;0.83;77.26;97525.55;104767;1270;71021;-27
2023/12/01 08:09:07;;;;;;;14.30;8.10;;;;;;;1.27;76.78;97535.94;104831;1267;74384;-28
2023/12/01 08:11:35;;;;;;;13.50;8.00;;;;;;;1.76;74.64;97532.97;105028;1267;71461;-28
2023/12/01 08:14:03;;;;;;;14.90;9.20;;;;;;;1.70;73.89;97539.52;103159;1251;3770723;-27
2023/12/01 08:16:31;;;;;;;16.20;9.20;;;;;;;1.42;74.47;97549.47;105578;1251;61055;-28
2023/12/01 08:18:59;;;;;;;17.20;10.50;;;;;;;1.22;75.52;97542.95;105868;1256;74526;-28
2023/12/01 08:29:09;;;;;;;17.20;8.90;;;;;;;0.32;78.93;97525.33;102560;1295;600183;-28
2023/12/01 08:31:39;;;;;;;19.60;10.40;;;;;;;0.16;78.68;97516.95;104735;1273;61181;-29
2023/12/01 08:34:07;;;;;;;13.30;7.90;;;;;;;-0.16;80.00;97523.08;104805;1267;61129;-28
2023/12/01 08:36:49;;;;;;;15.60;9.10;;;;;;;0.41;79.04;97530.42;104810;1272;72211;-28
2023/12/01 08:39:17;;;;;;;21.40;10.20;;;;;;;0.97;76.37;97524.27;104772;1269;74120;-28
2023/12/01 08:41:45;;;;;;;14.90;9.30;;;;;;;1.07;75.50;97525.48;102146;1273;3610052;-28
2023/12/01 08:44:13;;;;;;;18.00;8.60;;;;;;;0.86;76.11;97513.68;104799;1267;61177;-28
2023/12/01 08:46:41;;;;;;;17.70;10.10;;;;;;;0.62;77.12;97515.61;104862;1272;61116;-27
2023/12/01 08:56:51;;;;;;;17.80;9.90;;;;;;;0.17;79.80;97539.95;102639;1296;600184;-28
2023/12/01 08:59:19;;;;;;;16.90;11.00;;;;;;;-0.01;80.68;97563.95;105018;1267;61183;-28
2023/12/01 09:01:46;;;;;;;16.20;8.70;;;;;;;-0.06;82.05;97581.29;104896;1266;61145;-27
2023/12/01 09:04:14;;;;;;;17.00;9.30;;;;;;;0.61;79.77;97571.51;104853;1270;71804;-27
2023/12/01 09:06:43;;;;;;;15.50;9.50;;;;;;;0.95;78.00;97568.66;104898;1268;74258;-27
2023/12/01 09:09:12;;;;;;;17.90;8.80;;;;;;;0.79;78.21;97573.44;104897;1270;71666;-26
2023/12/01 09:11:40;;;;;;;12.90;8.40;;;;;;;0.39;80.78;97567.28;102513;1264;61175;-26
2023/12/01 09:14:08;;;;;;;20.80;11.10;;;;;;;0.36;81.18;97553.08;105149;1264;72069;-27
2023/12/01 09:16:36;;;;;;;18.90;10.00;;;;;;;0.18;82.43;97546.42;105159;1269;75535;-27
2023/12/01 09:19:04;;;;;;;33.00;17.10;;;;;;;0.24;82.47;97539.36;105136;1264;72613;-27
2023/12/01 09:21:34;;;;;;;27.00;14.30;;;;;;;0.14;83.31;97539.80;105153;1270;61192;-26
2023/12/01 09:24:02;;;;;;;16.70;10.50;;;;;;;0.76;81.55;97563.35;105134;1269;61770;-26
2023/12/01 09:26:31;;;;;;;19.30;11.10;;;;;;;1.05;79.45;97576.19;104946;1270;74075;-26
2023/12/01 09:28:59;;;;;;;19.80;11.00;;;;;;;1.19;79.23;97578.36;105174;1265;76526;-26
2023/12/01 09:31:27;;;;;;;19.70;11.90;;;;;;;0.91;79.23;97567.34;105208;1262;72272;-25
2023/12/01 09:33:55;;;;;;;17.30;10.60;;;;;;;1.06;79.22;97570.69;105159;1261;61142;-26
2023/12/01 09:36:23;;;;;;;14.30;8.70;;;;;;;0.58;80.60;97580.22;105217;1261;61106;-25
2023/12/01 09:38:52;;;;;;;14.10;8.80;;;;;;;0.39;81.96;97570.70;105218;1266;71789;-24
2023/12/01 09:41:19;;;;;;;19.00;10.80;;;;;;;0.05;83.48;97579.25;105259;1261;74059;-24
2023/12/01 09:43:48;;;;;;;12.60;7.50;;;;;;;0.10;84.31;97595.34;105260;1266;72209;-25
2023/12/01 09:46:21;;;;;;;;;;;;;;;0.58;82.23;97577.85;105200;1261;61726;-25
2023/12/01 09:48:49;;;;;;;21.10;11.90;;;;;;;0.99;80.36;97577.58;105260;1267;61096;-23
2023/12/01 09:51:17;;;;;;;16.00;9.20;;;;;;;1.06;79.78;97567.71;105249;1266;75320;-24
2023/12/01 09:53:45;;;;;;;17.40;10.10;;;;;;;0.77;80.38;97569.48;105192;1266;74474;-25
2023/12/01 09:56:14;;;;;;;16.20;10.60;;;;;;;0.47;81.96;97571.36;105819;1254;71400;-25
2023/12/01 09:58:42;;;;;;;18.60;10.00;;;;;;;0.46;82.41;97568.35;105697;1254;61148;-26
2023/12/01 10:01:10;;;;;;;18.30;11.00;;;;;;;0.59;81.96;97563.12;105795;1254;61110;-26
2023/12/01 10:03:37;;;;;;;12.80;7.70;;;;;;;0.57;82.19;97565.42;105665;1254;72786;-27
2023/12/01 10:06:09;;;;;;;8.30;5.90;;;;;;;1.06;80.67;97557.33;105913;1254;74267;-28
2023/12/01 10:08:36;;;;;;;17.90;11.20;;;;;;;1.24;78.93;97553.23;105850;1257;74698;-28
2023/12/01 10:11:21;;;;;;;19.00;10.20;;;;;;;1.40;78.38;97535.95;105680;1259;61183;-28
2023/12/01 10:20:25;;;;;;;19.90;9.90;;;;;;;0.45;82.24;97562.61;102588;1290;600036;-29
2023/12/01 10:22:55;;;;;;;16.90;10.10;;;;;;;0.43;82.55;97576.95;104850;1271;61208;-33
2023/12/01 10:25:23;;;;;;;13.10;7.70;;;;;;;0.35;82.96;97577.92;104814;1266;61052;-33
2023/12/01 10:27:57;;;;;;;13.70;8.30;;;;;;;0.86;81.52;97587.48;104688;1273;74155;-33
2023/12/01 10:30:25;;;;;;;13.20;7.10;;;;;;;1.64;78.16;97594.00;104648;1269;76336;-33
2023/12/01 10:32:53;;;;;;;15.80;10.00;;;;;;;1.75;76.84;97596.85;102170;1275;3499642;-33
2023/12/01 10:35:21;;;;;;;18.50;10.80;;;;;;;1.50;77.24;97595.97;104754;1266;61082;-33
2023/12/01 10:37:49;;;;;;;19.10;10.20;;;;;;;1.16;78.59;97600.45;104567;1267;61286;-34
2023/12/01 10:40:17;;;;;;;17.90;10.90;;;;;;;0.70;80.23;97595.55;104810;1269;72143;-33
2023/12/01 10:42:45;;;;;;;14.50;8.00;;;;;;;0.61;81.67;97572.54;104721;1265;74748;-31
2023/12/01 10:45:13;;;;;;;23.60;11.40;;;;;;;0.56;82.12;97570.81;104663;1269;71746;-31
2023/12/01 10:47:43;;;;;;;9.00;5.70;;;;;;;0.57;82.21;97582.51;104763;1271;61230;-28
2023/12/01 10:50:12;;;;;;;12.90;6.20;;;;;;;1.12;80.31;97605.16;104800;1266;61114;-29
2023/12/01 10:52:42;;;;;;;17.10;10.20;;;;;;;1.52;78.08;97619.26;104821;1271;72779;-30
2023/12/01 10:55:13;;;;;;;18.60;11.00;;;;;;;1.12;78.69;97624.96;104841;1272;76782;-30
2023/12/01 10:57:42;;;;;;;15.00;7.90;;;;;;;0.67;80.68;97628.88;104790;1271;70643;-30
2023/12/01 11:00:29;;;;;;;15.40;9.60;;;;;;;0.46;81.89;97636.81;104803;1270;61160;-30
2023/12/01 11:02:59;;;;;;;13.00;7.10;;;;;;;0.28;83.43;97660.13;104555;1271;61196;-30
2023/12/01 11:05:30;;;;;;;21.70;12.00;;;;;;;-0.02;84.97;97654.48;104826;1261;71933;-30
2023/12/01 11:08:17;;;;;;;15.60;9.70;;;;;;;-0.01;85.52;97652.52;104865;1263;74425;-30
2023/12/01 11:10:55;;;;;;;15.40;9.20;;;;;;;0.87;82.58;97646.92;104931;1263;72824;-30
2023/12/01 11:13:49;;;;;;;14.70;8.30;;;;;;;1.19;80.16;97642.10;104881;1263;61167;-29
2023/12/01 11:16:17;;;;;;;14.00;8.00;;;;;;;0.81;80.97;97660.27;104948;1267;61219;-30
2023/12/01 11:18:45;;;;;;;24.20;9.30;;;;;;;0.66;81.41;97659.31;105214;1268;73038;-29
2023/12/01 11:21:17;;;;;;;15.50;9.30;;;;;;;0.61;81.95;97657.96;105066;1262;74286;-29
2023/12/01 11:34:02;;;;;;;18.80;10.20;;;;;;;1.45;79.69;97642.77;108595;1267;58801;-27
2023/12/01 11:36:35;;;;;;;18.60;10.90;;;;;;;1.26;79.38;97654.31;108612;1267;62165;-27
2023/12/01 11:39:20;;;;;;;14.70;8.70;;;;;;;1.14;79.79;97657.33;108608;1266;72070;-27
2023/12/01 11:41:50;;;;;;;16.50;9.10;;;;;;;0.76;81.40;97671.89;108334;1266;73520;-28
2023/12/01 11:44:37;;;;;;;15.80;9.50;;;;;;;0.76;81.60;97661.95;105638;1265;3762681;-28
2023/12/01 11:47:06;;;;;;;17.00;9.60;;;;;;;0.71;81.77;97667.58;108616;1263;58766;-28
2023/12/01 11:49:39;;;;;;;16.00;8.50;;;;;;;0.72;81.94;97666.30;108752;1263;59817;-28
2023/12/01 11:52:13;;;;;;;13.50;7.10;;;;;;;0.64;82.28;97654.83;108689;1264;72755;-28
2023/12/01 11:54:41;;;;;;;14.90;7.10;;;;;;;1.04;81.02;97641.86;108722;1264;73176;-28
2023/12/01 11:57:15;;;;;;;22.10;11.00;;;;;;;1.47;78.95;97650.02;108620;1264;70430;-28
2023/12/01 11:59:43;;;;;;;18.20;9.80;;;;;;;1.60;78.11;97668.34;108659;1263;60369;-28
2023/12/01 12:02:11;;;;;;;14.80;8.60;;;;;;;1.31;78.61;97660.85;108709;1263;59974;-29
2023/12/01 12:04:39;;;;;;;17.70;9.70;;;;;;;0.92;80.51;97668.27;108649;1264;71799;-28
2023/12/01 12:07:08;;;;;;;19.60;10.00;;;;;;;0.66;81.75;97672.18;108718;1263;76340;-28
2023/12/01 12:09:36;;;;;;;17.50;10.00;;;;;;;0.41;83.24;97668.76;108687;1263;70816;-28
2023/12/01 12:12:09;;;;;;;16.00;9.70;;;;;;;0.25;84.05;97662.52;108680;1267;58825;-28
2023/12/01 12:14:40;;;;;;;;;;;;;;;0.14;85.03;97661.00;108709;1263;58896;-29
2023/12/01 12:17:08;;;;;;;15.60;9.10;;;;;;;0.68;83.29;97663.83;109144;1257;72832;-28
2023/12/01 12:19:42;;;;;;;14.70;7.30;;;;;;;0.68;82.49;97661.27;109008;1256;74671;-28
2023/12/01 12:22:14;;;;;;;15.70;9.00;;;;;;;0.72;82.10;97659.81;109091;1256;74911;-28
2023/12/01 12:24:42;;;;;;;14.50;8.70;;;;;;;0.74;82.14;97665.98;109120;1256;58928;-28
2023/12/01 12:27:10;;;;;;;16.80;9.10;;;;;;;0.71;82.03;97669.30;109081;1256;61895;-28
2023/12/01 12:29:38;;;;;;;15.00;8.50;;;;;;;0.41;82.67;97678.45;109042;1258;74006;-26
2023/12/01 12:32:06;;;;;;;13.80;8.90;;;;;;;0.17;83.59;97685.06;109018;1257;75473;-26
2023/12/01 12:34:34;;;;;;;14.00;6.70;;;;;;;-0.11;85.22;97684.33;108933;1257;73634;-26
2023/12/01 12:37:03;;;;;;;14.20;7.50;;;;;;;0.28;84.54;97675.96;109028;1257;59424;-26
2023/12/01 12:39:31;;;;;;;11.20;6.10;;;;;;;0.89;80.94;97678.55;108917;1258;58709;-27
2023/12/01 12:42:01;;;;;;;12.50;7.50;;;;;;;1.02;79.72;97670.19;109025;1257;70884;-27
2023/12/01 12:44:29;;;;;;;17.90;8.60;;;;;;;0.86;79.60;97677.22;109001;1257;73588;-29
2023/12/01 12:47:01;;;;;;;12.90;7.50;;;;;;;0.50;81.20;97682.87;109019;1257;71538;-27
2023/12/01 12:49:32;;;;;;;14.20;8.40;;;;;;;0.35;82.31;97681.36;108884;1257;59520;-27
2023/12/01 12:52:01;;;;;;;16.50;9.70;;;;;;;0.16;83.22;97686.80;108797;1257;60347;-27
2023/12/01 12:54:29;;;;;;;16.90;9.10;;;;;;;-0.17;85.01;97685.71;109013;1257;72175;-26
2023/12/01 12:56:56;;;;;;;14.20;7.40;;;;;;;-0.26;86.75;97681.29;108962;1257;76466;-28
2023/12/01 12:59:24;;;;;;;13.10;7.00;;;;;;;0.34;84.27;97684.19;108928;1257;70945;-26
2023/12/01 13:01:52;;;;;;;13.20;7.50;;;;;;;0.76;82.04;97681.96;108977;1257;62817;-27
2023/12/01 13:04:20;;;;;;;14.90;8.00;;;;;;;0.68;81.85;97682.75;109033;1257;60310;-27
2023/12/01 13:06:48;;;;;;;12.60;7.30;;;;;;;0.15;83.36;97682.44;108995;1257;75066;-27
2023/12/01 13:09:17;;;;;;;14.10;8.10;;;;;;;0.17;83.87;97693.95;109038;1257;74390;-27
2023/12/01 13:11:46;;;;;;;18.70;9.40;;;;;;;-0.04;84.62;97690.20;108991;1257;73603;-27
2023/12/01 13:14:14;;;;;;;16.90;9.70;;;;;;;-0.12;85.02;97694.65;108976;1257;59304;-27
2023/12/01 13:16:42;;;;;;;11.40;7.40;;;;;;;-0.11;85.17;97694.55;109034;1257;60013;-27
2023/12/01 13:19:23;;;;;;;13.60;6.50;;;;;;;0.36;84.21;97694.64;109021;1257;75061;-27
2023/12/01 13:21:52;;;;;;;18.30;10.10;;;;;;;0.80;82.14;97698.95;108887;1257;75750;-27